Time;durP1;ratioP1;P1;durP2;ratioP2;P2;SDS_P1;SDS_P2;PMS_P1;PMS_P2;Temp;Humidity;BMP_temperature;BMP_pressure;BME280_temperature;BME280_humidity;BME280_pressure;Samples;Min_cycle;Max_cycle;Signal;HPM_P1;HPM_P2
2021/03/11 00:04:04;;;;;;;6.78;4.13;;;10.70;46.90;;;;;;10097619;28;20033;-69
2021/03/11 00:08:55;;;;;;;10.05;5.15;;;10.60;47.10;;;;;;10079280;28;20040;-67
2021/03/11 00:13:46;;;;;;;9.18;4.15;;;10.60;47.20;;;;;;10106897;28;20060;-67
2021/03/11 00:18:37;;;;;;;6.55;3.92;;;10.60;48.10;;;;;;10117572;28;20051;-67
2021/03/11 00:23:27;;;;;;;10.23;5.28;;;10.50;47.60;;;;;;10089317;28;20049;-67
2021/03/11 00:28:18;;;;;;;8.02;3.80;;;10.50;47.70;;;;;;10100876;28;20040;-69
2021/03/11 00:33:09;;;;;;;7.50;3.75;;;10.50;47.90;;;;;;10095490;28;20029;-68
2021/03/11 00:37:59;;;;;;;5.82;3.00;;;10.50;48.00;;;;;;10075729;28;20037;-67
2021/03/11 00:42:51;;;;;;;7.18;3.58;;;10.50;47.80;;;;;;10099733;28;20032;-67
2021/03/11 00:47:42;;;;;;;6.75;3.90;;;10.50;47.80;;;;;;10096342;28;20045;-68
2021/03/11 00:52:33;;;;;;;6.75;3.88;;;10.60;47.80;;;;;;10078031;28;20527;-68
2021/03/11 00:57:24;;;;;;;10.10;3.70;;;10.60;48.60;;;;;;10096598;28;20115;-67
2021/03/11 01:02:14;;;;;;;7.38;3.60;;;10.60;48.00;;;;;;10094651;28;20033;-69
2021/03/11 01:07:05;;;;;;;8.63;3.92;;;10.60;47.90;;;;;;10083659;28;20077;-68
2021/03/11 01:11:56;;;;;;;11.25;4.30;;;10.50;48.20;;;;;;10090319;28;20382;-69
2021/03/11 01:16:49;;;;;;;8.63;4.60;;;10.50;48.20;;;;;;10097215;28;20045;-69
2021/03/11 01:21:39;;;;;;;9.80;4.97;;;10.50;48.20;;;;;;10094328;28;20094;-67
2021/03/11 01:26:30;;;;;;;10.18;4.50;;;10.50;48.20;;;;;;10090567;28;20033;-69
2021/03/11 01:31:21;;;;;;;8.63;3.65;;;10.50;48.30;;;;;;10090065;28;20064;-69
2021/03/11 01:36:12;;;;;;;7.43;3.90;;;10.50;48.30;;;;;;10088952;28;20033;-68
2021/03/11 01:41:02;;;;;;;6.65;3.83;;;10.60;48.20;;;;;;10089698;28;20033;-68
2021/03/11 01:45:53;;;;;;;7.75;4.03;;;10.60;48.20;;;;;;10089441;28;20025;-68
2021/03/11 01:50:44;;;;;;;10.10;5.55;;;10.60;48.20;;;;;;10089489;28;20345;-68
2021/03/11 01:55:35;;;;;;;6.50;4.13;;;10.50;48.40;;;;;;10089425;28;20495;-68
2021/03/11 02:00:27;;;;;;;7.43;3.80;;;10.60;48.40;;;;;;10089384;28;20052;-68
2021/03/11 02:05:19;;;;;;;9.82;4.60;;;10.50;48.20;;;;;;10089154;28;20566;-68
2021/03/11 02:10:12;;;;;;;10.60;4.38;;;10.60;48.60;;;;;;10087823;28;20045;-68
2021/03/11 02:15:29;;;;;;;7.78;4.03;;;10.50;48.50;;;;;;10088701;28;20120;-68
2021/03/11 02:20:38;;;;;;;9.13;4.60;;;10.40;49.00;;;;;;10092147;28;20392;-68
2021/03/11 02:25:48;;;;;;;9.65;4.35;;;10.30;49.20;;;;;;10086321;28;20395;-67
2021/03/11 02:30:41;;;;;;;6.10;3.85;;;10.30;49.70;;;;;;10059472;28;20055;-67
2021/03/11 02:35:32;;;;;;;8.15;3.83;;;10.30;49.80;;;;;;10092014;28;20041;-67
2021/03/11 02:40:33;;;;;;;7.28;3.92;;;10.40;50.00;;;;;;10092000;28;20056;-68
2021/03/11 02:45:28;;;;;;;7.03;3.28;;;10.40;50.40;;;;;;10086424;28;20033;-67
2021/03/11 02:50:19;;;;;;;8.60;4.75;;;10.40;50.50;;;;;;10092733;28;20055;-68
2021/03/11 02:55:11;;;;;;;8.55;4.18;;;10.40;50.60;;;;;;10098436;28;20036;-68
2021/03/11 03:00:09;;;;;;;5.82;4.00;;;10.50;50.60;;;;;;10092878;28;20033;-67
2021/03/11 03:05:01;;;;;;;11.63;4.63;;;10.50;50.60;;;;;;10092274;28;20045;-67
2021/03/11 03:09:55;;;;;;;8.63;3.55;;;10.60;50.70;;;;;;10061874;28;20041;-67
2021/03/11 03:14:48;;;;;;;6.45;3.60;;;10.60;50.80;;;;;;10092692;28;20037;-68
2021/03/11 03:19:40;;;;;;;8.43;4.60;;;10.60;50.70;;;;;;10096963;28;20457;-68
2021/03/11 03:24:31;;;;;;;6.55;3.92;;;10.60;50.70;;;;;;10079060;28;20103;-68
2021/03/11 03:29:22;;;;;;;5.93;3.53;;;10.70;50.90;;;;;;10087111;28;20599;-67
2021/03/11 03:34:13;;;;;;;5.72;3.15;;;10.70;51.00;;;;;;10080722;28;20037;-67
2021/03/11 03:39:04;;;;;;;8.15;3.75;;;10.70;51.20;;;;;;10095911;28;20040;-68
2021/03/11 03:43:56;;;;;;;6.68;4.03;;;10.70;51.10;;;;;;10078521;28;20425;-68
2021/03/11 03:48:53;;;;;;;5.72;2.60;;;10.70;51.10;;;;;;10096802;28;20045;-68
2021/03/11 03:53:56;;;;;;;5.80;3.20;;;10.70;51.30;;;;;;10094999;28;20029;-68
2021/03/11 03:58:48;;;;;;;6.57;3.17;;;10.70;51.30;;;;;;10095546;28;20095;-68
2021/03/11 04:03:40;;;;;;;6.47;3.20;;;10.70;51.50;;;;;;10078196;28;20569;-67
2021/03/11 04:08:31;;;;;;;5.80;2.60;;;10.70;51.60;;;;;;10098941;28;20052;-67
2021/03/11 04:13:22;;;;;;;6.82;3.08;;;10.70;51.60;;;;;;10093011;28;20453;-67
2021/03/11 04:18:13;;;;;;;7.05;2.78;;;10.80;51.70;;;;;;10096551;28;20081;-69
2021/03/11 04:23:05;;;;;;;5.57;3.03;;;10.70;52.00;;;;;;10092326;28;20053;-67
2021/03/11 04:27:56;;;;;;;4.22;2.42;;;10.70;52.20;;;;;;10098061;28;20135;-68
2021/03/11 04:32:48;;;;;;;4.97;2.47;;;10.80;52.20;;;;;;10073552;28;20136;-68
2021/03/11 04:37:39;;;;;;;6.43;2.20;;;10.90;52.20;;;;;;10090930;28;20136;-68
2021/03/11 04:42:31;;;;;;;3.13;2.20;;;10.90;52.20;;;;;;10076382;28;20506;-67
2021/03/11 04:47:22;;;;;;;4.82;2.60;;;10.90;52.30;;;;;;10099387;28;20057;-67
2021/03/11 04:52:14;;;;;;;4.40;2.08;;;11.00;52.20;;;;;;10097954;28;20048;-68
2021/03/11 04:57:06;;;;;;;4.22;1.70;;;11.00;52.50;;;;;;10097955;28;20037;-66
2021/03/11 05:02:00;;;;;;;4.75;2.17;;;11.00;52.60;;;;;;10092154;28;20321;-68
2021/03/11 05:06:51;;;;;;;5.00;2.17;;;11.00;52.90;;;;;;10096901;28;20075;-69
2021/03/11 05:11:43;;;;;;;5.25;1.50;;;11.00;53.00;;;;;;10104380;28;20111;-69
2021/03/11 05:16:33;;;;;;;3.05;1.33;;;11.10;52.90;;;;;;10099228;28;20049;-69
2021/03/11 05:21:24;;;;;;;2.58;2.13;;;11.10;53.10;;;;;;10088755;28;20047;-69
2021/03/11 05:26:15;;;;;;;2.35;1.60;;;11.00;53.40;;;;;;10103576;28;20044;-68
2021/03/11 05:31:06;;;;;;;3.95;1.10;;;11.00;53.50;;;;;;10097227;28;20037;-69
2021/03/11 05:35:56;;;;;;;3.90;1.63;;;11.00;54.20;;;;;;10101395;28;20107;-69
2021/03/11 05:40:54;;;;;;;4.53;1.67;;;11.00;54.10;;;;;;10101434;28;20040;-67
2021/03/11 05:45:46;;;;;;;2.67;1.67;;;11.00;54.10;;;;;;10071895;28;20082;-68
2021/03/11 05:50:37;;;;;;;2.38;1.45;;;11.00;54.20;;;;;;10105330;28;20059;-68
2021/03/11 05:55:28;;;;;;;3.20;1.35;;;11.00;54.50;;;;;;10096601;28;20578;-68
2021/03/11 06:00:21;;;;;;;2.15;1.50;;;11.00;54.60;;;;;;10100295;28;20166;-69
2021/03/11 06:05:14;;;;;;;2.78;1.42;;;11.00;54.60;;;;;;10095844;28;20542;-68
2021/03/11 06:10:06;;;;;;;1.90;1.50;;;11.00;54.80;;;;;;10094011;28;20335;-68
2021/03/11 06:15:35;;;;;;;2.08;1.35;;;11.00;55.00;;;;;;10103878;28;20116;-69
2021/03/11 06:20:26;;;;;;;3.45;1.30;;;11.00;55.50;;;;;;10087516;28;20489;-68
2021/03/11 06:25:24;;;;;;;2.50;1.40;;;11.10;55.40;;;;;;10240552;27;20369;-67
2021/03/11 06:30:33;;;;;;;1.55;1.17;;;11.10;55.40;;;;;;10238445;27;20051;-68
2021/03/11 06:35:24;;;;;;;2.53;1.13;;;11.10;55.70;;;;;;10209417;27;20012;-67
2021/03/11 06:40:19;;;;;;;1.50;1.30;;;11.20;55.70;;;;;;10229821;27;20741;-68
2021/03/11 06:45:24;;;;;;;3.28;1.27;;;11.20;55.80;;;;;;10240533;28;20031;-66
2021/03/11 06:50:15;;;;;;;1.45;1.10;;;11.30;56.00;;;;;;10239449;28;20027;-68
2021/03/11 06:55:10;;;;;;;2.72;1.05;;;11.30;55.90;;;;;;10240251;27;20489;-68
2021/03/11 07:00:03;;;;;;;2.97;0.83;;;11.40;56.60;;;;;;10240213;27;20046;-68
2021/03/11 07:04:55;;;;;;;1.45;1.08;;;11.50;56.90;;;;;;10238179;28;20037;-68
2021/03/11 07:09:48;;;;;;;1.77;1.08;;;11.60;56.90;;;;;;10238117;27;20031;-68
2021/03/11 07:14:39;;;;;;;5.15;1.30;;;11.70;57.30;;;;;;10232178;27;20051;-67
2021/03/11 07:19:29;;;;;;;1.30;0.85;;;11.80;57.50;;;;;;10237630;27;20500;-67
2021/03/11 07:24:38;;;;;;;1.45;1.00;;;11.90;57.80;;;;;;10217715;27;20043;-66
2021/03/11 07:29:29;;;;;;;2.88;1.33;;;12.00;57.90;;;;;;10231825;27;20088;-67
2021/03/11 07:34:25;;;;;;;1.67;1.13;;;12.00;58.00;;;;;;10190427;28;20104;-66
2021/03/11 07:39:16;;;;;;;1.83;1.05;;;12.00;58.00;;;;;;10204796;28;20093;-66
2021/03/11 07:44:08;;;;;;;1.48;0.80;;;12.10;58.20;;;;;;10205148;28;20035;-66
2021/03/11 07:49:01;;;;;;;4.53;1.70;;;12.10;58.30;;;;;;10181196;28;20355;-66
2021/03/11 07:53:52;;;;;;;5.85;1.42;;;12.10;58.50;;;;;;10177586;28;20032;-67
2021/03/11 07:58:43;;;;;;;1.55;1.20;;;12.00;58.50;;;;;;10153557;28;20027;-62
2021/03/11 08:03:37;;;;;;;2.35;1.08;;;12.10;58.60;;;;;;10154727;28;20044;-66
2021/03/11 08:08:29;;;;;;;5.60;1.42;;;12.10;58.50;;;;;;10164068;28;20180;-65
2021/03/11 08:13:34;;;;;;;4.75;1.33;;;12.10;58.60;;;;;;10162165;28;20063;-65
2021/03/11 08:18:34;;;;;;;2.23;1.07;;;12.20;59.00;;;;;;10164037;28;20030;-65
2021/03/11 08:23:30;;;;;;;2.88;0.95;;;12.30;58.60;;;;;;10141505;28;20047;-66
2021/03/11 08:28:22;;;;;;;3.95;1.23;;;12.30;58.60;;;;;;10157657;28;20043;-64
2021/03/11 08:33:34;;;;;;;1.67;1.08;;;12.40;58.80;;;;;;10147475;28;20032;-64
2021/03/11 08:38:26;;;;;;;3.67;1.02;;;12.40;58.90;;;;;;10150736;28;20537;-64
2021/03/11 08:43:38;;;;;;;2.65;0.80;;;12.40;59.30;;;;;;10161571;28;20043;-63
2021/03/11 08:48:52;;;;;;;1.30;0.77;;;12.50;59.50;;;;;;10160951;28;20463;-62
2021/03/11 08:53:44;;;;;;;1.80;0.80;;;12.50;59.30;;;;;;10150813;28;20142;-65
2021/03/11 08:58:59;;;;;;;2.67;0.80;;;12.50;59.30;;;;;;10161266;28;20266;-65
2021/03/11 09:03:50;;;;;;;0.90;0.63;;;12.60;59.80;;;;;;10162375;28;20333;-65
2021/03/11 09:08:48;;;;;;;1.98;0.88;;;12.70;59.50;;;;;;10159548;28;20028;-63
2021/03/11 09:13:43;;;;;;;3.38;0.45;;;12.80;59.40;;;;;;10159399;28;21230;-62
2021/03/11 09:18:35;;;;;;;1.20;0.60;;;12.80;59.40;;;;;;10159956;28;20556;-65
2021/03/11 09:23:37;;;;;;;0.95;0.68;;;12.70;59.60;;;;;;10160462;28;20047;-63
2021/03/11 09:28:28;;;;;;;1.10;0.65;;;12.70;60.00;;;;;;10160437;28;20032;-63
2021/03/11 09:33:21;;;;;;;2.53;0.60;;;12.60;60.20;;;;;;10158680;28;20035;-64
2021/03/11 09:38:17;;;;;;;4.35;0.45;;;12.70;60.80;;;;;;10159160;28;20019;-65
2021/03/11 09:43:37;;;;;;;2.15;0.50;;;12.70;61.20;;;;;;10160394;28;20055;-66
2021/03/11 09:48:31;;;;;;;2.45;0.70;;;12.70;61.40;;;;;;10156186;28;20114;-67
2021/03/11 09:53:24;;;;;;;1.10;0.77;;;12.80;61.90;;;;;;10189611;28;20107;-68
2021/03/11 09:58:16;;;;;;;2.13;0.65;;;12.80;62.00;;;;;;10180640;28;20038;-67
2021/03/11 10:03:18;;;;;;;1.30;0.80;;;12.80;62.00;;;;;;10195893;28;20051;-69
2021/03/11 10:08:22;;;;;;;1.30;0.47;;;12.80;62.60;;;;;;10201715;27;20060;-67
2021/03/11 10:13:31;;;;;;;2.53;1.15;;;12.80;62.40;;;;;;10196232;28;20040;-63
2021/03/11 10:18:22;;;;;;;1.17;0.65;;;12.80;64.10;;;;;;10198313;28;20162;-66
2021/03/11 10:23:17;;;;;;;4.10;0.80;;;12.80;63.50;;;;;;10196680;28;20630;-68
2021/03/11 10:28:10;;;;;;;1.10;0.75;;;12.60;64.50;;;;;;10197569;28;20106;-67
2021/03/11 10:33:03;;;;;;;3.22;1.10;;;12.40;66.30;;;;;;10189343;28;20612;-64
2021/03/11 10:37:54;;;;;;;2.22;0.90;;;12.20;67.30;;;;;;10200567;28;20519;-66
2021/03/11 10:42:47;;;;;;;1.55;0.90;;;12.20;68.30;;;;;;10200184;28;20526;-67
2021/03/11 10:47:39;;;;;;;2.47;1.65;;;12.20;68.60;;;;;;10201076;28;20055;-66
2021/03/11 10:52:46;;;;;;;3.95;1.00;;;12.30;69.40;;;;;;10195480;28;20277;-64
2021/03/11 10:57:37;;;;;;;2.20;1.00;;;12.40;69.70;;;;;;10195386;28;20470;-64
2021/03/11 11:02:29;;;;;;;2.45;1.15;;;12.40;69.90;;;;;;10197695;28;20433;-63
2021/03/11 11:07:20;;;;;;;1.58;0.85;;;12.60;69.80;;;;;;10192159;28;20405;-65
2021/03/11 11:12:17;;;;;;;2.22;1.10;;;12.70;69.90;;;;;;10208145;28;20033;-65
2021/03/11 11:17:12;;;;;;;0.95;0.80;;;12.80;69.80;;;;;;10198697;28;20285;-69
2021/03/11 11:22:04;;;;;;;1.67;0.80;;;12.90;70.30;;;;;;10198514;28;20067;-67
2021/03/11 11:26:56;;;;;;;1.83;0.77;;;13.00;70.40;;;;;;10206483;28;20031;-65
2021/03/11 11:31:46;;;;;;;1.42;0.80;;;13.00;70.20;;;;;;10205293;28;20027;-64
2021/03/11 11:36:37;;;;;;;0.43;0.38;;;13.10;70.50;;;;;;10204177;28;20392;-65
2021/03/11 11:41:28;;;;;;;1.30;0.68;;;13.30;70.70;;;;;;10206890;28;20032;-65
2021/03/11 11:46:19;;;;;;;2.13;0.60;;;13.50;70.30;;;;;;10195502;28;20098;-65
2021/03/11 11:51:09;;;;;;;1.73;1.08;;;13.70;69.90;;;;;;10198569;28;20120;-64
2021/03/11 11:56:00;;;;;;;4.05;0.93;;;14.00;69.70;;;;;;10196024;28;20016;-65
2021/03/11 12:00:51;;;;;;;1.10;0.60;;;14.10;69.20;;;;;;10203161;28;20457;-65
2021/03/11 12:05:42;;;;;;;0.63;0.47;;;14.20;69.10;;;;;;10209016;28;20088;-65
2021/03/11 12:10:33;;;;;;;1.92;0.52;;;14.70;67.90;;;;;;10202553;28;20060;-64
2021/03/11 12:15:24;;;;;;;0.57;0.40;;;14.70;67.30;;;;;;10196518;28;20020;-64
2021/03/11 12:20:15;;;;;;;0.70;0.60;;;14.50;67.80;;;;;;10187815;28;20030;-62
2021/03/11 12:25:06;;;;;;;1.25;0.47;;;14.40;67.80;;;;;;10171057;28;20059;-64
2021/03/11 12:29:58;;;;;;;1.60;0.40;;;14.50;67.40;;;;;;10176491;28;20043;-63
2021/03/11 12:34:49;;;;;;;0.40;0.40;;;14.80;66.90;;;;;;10173544;28;20044;-63
2021/03/11 12:39:40;;;;;;;0.75;0.30;;;15.00;66.00;;;;;;10175069;28;20438;-64
2021/03/11 12:44:31;;;;;;;1.00;0.40;;;15.10;65.30;;;;;;10172460;28;20568;-65
2021/03/11 12:49:22;;;;;;;1.17;0.40;;;15.00;65.20;;;;;;10200365;28;20030;-66
2021/03/11 12:54:13;;;;;;;0.38;0.30;;;14.80;65.50;;;;;;10202447;28;20401;-64
2021/03/11 12:59:06;;;;;;;0.60;0.30;;;14.60;65.50;;;;;;10195085;28;20043;-64
2021/03/11 13:03:57;;;;;;;0.47;0.43;;;14.60;65.70;;;;;;10195785;28;20362;-64
2021/03/11 13:08:48;;;;;;;1.38;0.50;;;14.50;65.40;;;;;;10172548;28;20035;-62
2021/03/11 13:13:42;;;;;;;0.98;0.40;;;14.50;65.60;;;;;;10195892;28;20038;-66
2021/03/11 13:18:33;;;;;;;0.70;0.50;;;14.50;65.80;;;;;;10200959;28;20023;-65
2021/03/11 13:23:23;;;;;;;1.00;0.50;;;14.40;65.80;;;;;;10195972;28;20143;-65
2021/03/11 13:28:14;;;;;;;0.40;0.32;;;14.40;65.90;;;;;;10200390;28;20020;-66
2021/03/11 13:33:06;;;;;;;0.35;0.20;;;14.40;65.90;;;;;;10185063;28;20035;-65
2021/03/11 13:37:57;;;;;;;0.63;0.43;;;14.30;65.90;;;;;;10195355;28;20102;-65
2021/03/11 13:42:48;;;;;;;1.67;0.52;;;14.40;65.90;;;;;;10197163;28;20050;-65
2021/03/11 13:47:39;;;;;;;1.65;0.30;;;14.60;65.50;;;;;;10201068;28;20054;-63
2021/03/11 13:52:29;;;;;;;0.35;0.35;;;14.80;65.10;;;;;;10179752;28;20024;-64
2021/03/11 13:57:20;;;;;;;2.38;0.35;;;14.80;64.30;;;;;;10197140;28;20119;-65
2021/03/11 14:02:11;;;;;;;0.65;0.47;;;15.00;63.60;;;;;;10201344;28;20050;-66
2021/03/11 14:07:02;;;;;;;0.45;0.45;;;15.10;63.20;;;;;;10193896;28;20036;-64
2021/03/11 14:11:53;;;;;;;0.93;0.38;;;15.10;62.60;;;;;;10191340;28;20032;-64
2021/03/11 14:16:44;;;;;;;0.85;0.40;;;15.20;61.30;;;;;;10187389;28;20095;-62
2021/03/11 14:21:34;;;;;;;0.30;0.10;;;15.10;60.90;;;;;;10196831;28;20047;-62
2021/03/11 14:26:25;;;;;;;3.10;0.50;;;15.00;61.00;;;;;;10194759;28;20035;-63
2021/03/11 14:31:16;;;;;;;1.10;0.50;;;15.10;61.00;;;;;;10186845;28;20126;-63
2021/03/11 14:36:07;;;;;;;1.35;0.40;;;15.00;61.60;;;;;;10195148;28;20618;-66
2021/03/11 14:40:58;;;;;;;0.75;0.50;;;15.00;61.60;;;;;;10196805;28;20034;-65
2021/03/11 14:45:49;;;;;;;0.30;0.30;;;15.10;61.40;;;;;;10203802;28;20023;-64
2021/03/11 14:50:41;;;;;;;1.27;0.40;;;15.10;61.30;;;;;;10198728;28;20020;-62
2021/03/11 14:55:32;;;;;;;0.57;0.40;;;14.80;61.90;;;;;;10199648;28;20020;-62
2021/03/11 15:00:23;;;;;;;0.77;0.40;;;14.60;62.80;;;;;;10198188;28;20027;-63
2021/03/11 15:05:17;;;;;;;1.23;0.57;;;14.50;63.00;;;;;;10201972;28;20030;-63
2021/03/11 15:10:12;;;;;;;1.80;0.88;;;14.30;63.40;;;;;;10210873;28;20356;-65
2021/03/11 15:15:04;;;;;;;0.75;0.40;;;14.30;63.00;;;;;;10199180;28;20439;-63
2021/03/11 15:19:55;;;;;;;1.58;0.90;;;15.40;60.80;;;;;;10198337;28;20031;-62
2021/03/11 15:24:46;;;;;;;1.15;0.55;;;20.90;51.30;;;;;;10207599;28;20105;-63
2021/03/11 15:29:38;;;;;;;0.95;0.90;;;19.70;50.90;;;;;;10193938;28;20459;-64
2021/03/11 15:34:29;;;;;;;1.13;0.80;;;16.80;57.10;;;;;;10199320;28;20031;-65
2021/03/11 15:39:20;;;;;;;4.18;0.82;;;16.00;58.10;;;;;;10193484;28;20523;-63
2021/03/11 15:44:10;;;;;;;0.90;0.75;;;15.60;58.00;;;;;;10197517;28;20040;-64
2021/03/11 15:49:01;;;;;;;1.50;0.40;;;17.60;52.50;;;;;;10186558;28;20024;-63
2021/03/11 15:53:52;;;;;;;4.07;0.65;;;15.80;56.30;;;;;;10197828;28;20022;-65
2021/03/11 15:58:42;;;;;;;1.00;0.40;;;15.10;57.70;;;;;;10195224;28;20024;-65
2021/03/11 16:03:33;;;;;;;1.23;0.68;;;17.50;52.30;;;;;;10203295;28;20080;-65
2021/03/11 16:08:24;;;;;;;0.70;0.40;;;17.90;52.90;;;;;;10182207;28;20146;-64
2021/03/11 16:13:15;;;;;;;0.80;0.40;;;21.20;45.60;;;;;;10194282;28;20374;-64
2021/03/11 16:18:10;;;;;;;0.93;0.55;;;18.40;48.50;;;;;;10191984;28;20131;-65
2021/03/11 16:23:00;;;;;;;1.58;0.30;;;16.20;52.70;;;;;;10191647;28;20055;-63
2021/03/11 16:27:51;;;;;;;4.78;0.80;;;15.30;53.90;;;;;;10201650;28;20411;-64
2021/03/11 16:32:43;;;;;;;1.95;0.63;;;15.00;54.70;;;;;;10198066;28;20040;-66
2021/03/11 16:37:36;;;;;;;1.58;0.77;;;14.80;54.90;;;;;;10191376;28;20023;-65
2021/03/11 16:42:27;;;;;;;2.65;0.77;;;14.80;54.80;;;;;;10193512;28;20202;-66
2021/03/11 16:47:21;;;;;;;1.50;0.60;;;14.80;55.00;;;;;;10175102;28;20646;-66
2021/03/11 16:52:11;;;;;;;1.30;0.40;;;14.40;55.80;;;;;;10196746;28;20259;-67
2021/03/11 16:57:02;;;;;;;0.88;0.80;;;14.20;56.50;;;;;;10200515;28;20582;-69
2021/03/11 17:01:54;;;;;;;1.13;0.40;;;14.10;56.70;;;;;;10187873;28;20096;-65
2021/03/11 17:06:45;;;;;;;1.17;0.60;;;13.90;57.20;;;;;;10166494;28;20046;-67
2021/03/11 17:11:36;;;;;;;2.25;0.90;;;13.80;57.40;;;;;;10189123;28;20016;-64
2021/03/11 17:16:27;;;;;;;1.15;0.90;;;13.70;57.60;;;;;;10167800;28;20028;-64
2021/03/11 17:21:17;;;;;;;2.47;0.82;;;13.60;57.90;;;;;;10178295;28;20047;-65
2021/03/11 17:26:08;;;;;;;0.85;0.40;;;13.50;58.10;;;;;;10193913;28;20024;-65
2021/03/11 17:30:59;;;;;;;2.03;0.90;;;13.40;58.10;;;;;;10176168;28;20479;-67
2021/03/11 17:35:51;;;;;;;2.28;0.55;;;13.40;57.90;;;;;;10190103;28;20197;-68
2021/03/11 17:40:42;;;;;;;3.65;0.70;;;13.30;58.60;;;;;;10198927;28;20260;-69
2021/03/11 17:45:33;;;;;;;1.75;0.95;;;13.20;58.70;;;;;;10193902;28;20566;-65
2021/03/11 17:50:26;;;;;;;3.28;0.98;;;13.10;58.80;;;;;;10180230;28;20018;-65
2021/03/11 17:55:17;;;;;;;2.03;0.77;;;13.10;59.20;;;;;;10187075;28;20537;-65
2021/03/11 18:00:11;;;;;;;1.42;0.80;;;13.10;59.40;;;;;;10188625;28;20031;-64
2021/03/11 18:05:02;;;;;;;2.35;0.90;;;13.10;59.60;;;;;;10192231;28;20028;-63
2021/03/11 18:09:53;;;;;;;2.38;1.17;;;13.10;59.20;;;;;;10176509;28;20046;-64
2021/03/11 18:14:44;;;;;;;3.95;2.00;;;13.20;59.40;;;;;;10198943;28;20027;-64
2021/03/11 18:19:35;;;;;;;2.28;0.90;;;13.20;59.40;;;;;;10200178;28;20039;-65
2021/03/11 18:24:26;;;;;;;2.28;0.70;;;13.30;59.10;;;;;;10197710;28;20035;-63
2021/03/11 18:29:17;;;;;;;3.08;0.70;;;13.30;59.10;;;;;;10190296;28;20404;-63
2021/03/11 18:34:08;;;;;;;1.58;0.90;;;13.20;58.90;;;;;;10175363;28;20019;-63
2021/03/11 18:38:58;;;;;;;1.38;0.70;;;13.20;58.90;;;;;;10186650;28;20043;-64
2021/03/11 18:43:49;;;;;;;1.80;0.60;;;13.20;58.70;;;;;;10191189;28;20043;-63
2021/03/11 18:48:41;;;;;;;2.40;0.77;;;13.10;58.60;;;;;;10185980;28;20046;-62
2021/03/11 18:53:31;;;;;;;2.33;0.77;;;13.10;58.40;;;;;;10191478;28;20077;-63
2021/03/11 18:58:22;;;;;;;2.72;0.95;;;13.20;58.40;;;;;;10194745;28;20028;-60
2021/03/11 19:03:13;;;;;;;1.90;0.63;;;13.20;58.20;;;;;;10169627;28;20047;-65
2021/03/11 19:08:06;;;;;;;1.35;0.60;;;13.00;57.80;;;;;;10199108;28;20027;-63
2021/03/11 19:12:57;;;;;;;1.58;0.50;;;11.70;60.30;;;;;;10183714;28;20576;-63
2021/03/11 19:17:48;;;;;;;2.53;0.57;;;10.60;62.90;;;;;;10198411;28;20031;-65
2021/03/11 19:22:39;;;;;;;0.45;0.38;;;9.40;67.20;;;;;;10179109;28;20676;-62
2021/03/11 19:27:30;;;;;;;0.22;0.22;;;8.80;71.40;;;;;;10198944;28;20032;-61
2021/03/11 19:32:21;;;;;;;1.60;0.60;;;8.80;72.90;;;;;;10194899;28;20024;-62
2021/03/11 19:37:12;;;;;;;3.08;0.60;;;8.60;74.50;;;;;;10204063;28;20695;-61
2021/03/11 19:42:03;;;;;;;0.88;0.60;;;8.60;76.40;;;;;;10207801;28;20504;-61
2021/03/11 19:46:53;;;;;;;2.05;0.80;;;8.40;78.50;;;;;;10201987;28;20054;-60
2021/03/11 19:51:45;;;;;;;2.97;0.88;;;8.30;79.80;;;;;;10202498;28;20066;-60
2021/03/11 19:56:35;;;;;;;0.43;0.43;;;8.10;82.40;;;;;;10179391;28;20035;-62
2021/03/11 20:01:26;;;;;;;1.60;0.75;;;8.10;82.70;;;;;;10206243;28;20035;-63
2021/03/11 20:06:17;;;;;;;0.90;0.45;;;8.10;83.40;;;;;;10193846;28;20714;-62
2021/03/11 20:11:08;;;;;;;0.93;0.30;;;8.00;84.30;;;;;;10198182;28;20028;-61
2021/03/11 20:15:59;;;;;;;0.43;0.30;;;7.80;84.90;;;;;;10207735;28;20034;-61
2021/03/11 20:21:13;;;;;;;0.32;0.30;;;7.70;85.00;;;;;;10202276;28;20024;-63
2021/03/11 20:26:05;;;;;;;1.88;0.30;;;7.60;85.50;;;;;;10190265;28;20219;-61
2021/03/11 20:30:56;;;;;;;1.00;0.38;;;7.70;85.60;;;;;;10205249;28;20055;-54
2021/03/11 20:35:46;;;;;;;1.60;0.95;;;7.70;85.70;;;;;;10201281;27;20063;-60
2021/03/11 20:40:44;;;;;;;2.17;0.35;;;7.80;84.90;;;;;;10197747;28;20520;-66
2021/03/11 20:46:07;;;;;;;2.90;0.38;;;8.00;83.20;;;;;;10200348;28;20112;-60
2021/03/11 20:50:59;;;;;;;0.65;0.40;;;8.20;82.70;;;;;;10200919;28;20063;-60
2021/03/11 20:55:51;;;;;;;5.38;0.95;;;8.40;82.20;;;;;;10196846;28;20033;-68
2021/03/11 21:00:42;;;;;;;2.33;0.32;;;8.50;81.20;;;;;;10195393;28;20495;-63
2021/03/11 21:05:33;;;;;;;0.35;0.30;;;8.70;80.70;;;;;;10197282;28;20115;-67
2021/03/11 21:10:44;;;;;;;1.20;0.40;;;8.70;80.60;;;;;;10191498;28;20087;-62
2021/03/11 21:15:35;;;;;;;0.98;0.40;;;8.70;80.60;;;;;;10193792;28;20025;-73
2021/03/11 21:20:28;;;;;;;0.30;0.17;;;8.70;80.40;;;;;;10189083;28;20028;-66
2021/03/11 21:25:21;;;;;;;0.70;0.20;;;8.70;80.40;;;;;;10194502;28;20177;-64
2021/03/11 21:30:14;;;;;;;0.22;0.15;;;8.70;80.20;;;;;;10189478;28;20363;-65
2021/03/11 21:35:08;;;;;;;1.00;0.30;;;8.70;79.90;;;;;;10196184;28;20034;-64
2021/03/11 21:39:58;;;;;;;0.60;0.30;;;8.80;79.50;;;;;;10203352;28;20373;-65
2021/03/11 21:44:49;;;;;;;0.50;0.40;;;8.80;79.40;;;;;;10201193;28;20524;-67
2021/03/11 21:49:40;;;;;;;0.40;0.10;;;9.00;79.00;;;;;;10184760;28;20023;-64
2021/03/11 21:54:31;;;;;;;0.45;0.25;;;9.00;78.20;;;;;;10190002;28;20107;-63
2021/03/11 21:59:22;;;;;;;2.92;0.50;;;9.10;78.00;;;;;;10202242;28;20468;-63
2021/03/11 22:04:13;;;;;;;1.80;0.55;;;9.10;77.60;;;;;;10199549;28;20035;-63
2021/03/11 22:09:05;;;;;;;0.20;0.20;;;9.20;76.90;;;;;;10197176;28;20027;-66
2021/03/11 22:13:56;;;;;;;0.22;0.22;;;9.30;76.60;;;;;;10197204;28;20019;-63
2021/03/11 22:18:47;;;;;;;0.73;0.30;;;9.30;76.30;;;;;;10196311;28;20035;-63
2021/03/11 22:23:38;;;;;;;2.60;0.50;;;9.40;76.10;;;;;;10197618;28;20445;-65
2021/03/11 22:28:29;;;;;;;0.95;0.32;;;9.50;75.60;;;;;;10203090;28;20020;-64
2021/03/11 22:33:19;;;;;;;1.00;0.35;;;9.60;75.00;;;;;;10186950;28;20339;-65
2021/03/11 22:38:11;;;;;;;0.88;0.38;;;9.60;74.90;;;;;;10182089;28;20035;-64
2021/03/11 22:43:02;;;;;;;1.67;0.40;;;9.50;75.10;;;;;;10194808;28;20074;-64
2021/03/11 22:47:53;;;;;;;0.77;0.30;;;9.40;75.00;;;;;;10197134;28;20034;-66
2021/03/11 22:52:43;;;;;;;0.95;0.45;;;9.50;74.50;;;;;;10200985;28;20501;-65
2021/03/11 22:57:34;;;;;;;0.63;0.43;;;9.50;73.90;;;;;;10198008;28;20024;-65
2021/03/11 23:02:25;;;;;;;1.67;0.43;;;9.60;73.70;;;;;;10186846;28;20991;-65
2021/03/11 23:07:16;;;;;;;0.20;0.20;;;9.60;73.00;;;;;;10208017;28;20032;-64
2021/03/11 23:12:10;;;;;;;1.55;0.57;;;9.60;72.40;;;;;;10206720;28;20038;-64
2021/03/11 23:17:00;;;;;;;1.60;0.43;;;9.60;71.90;;;;;;10204779;28;20032;-64
2021/03/11 23:21:58;;;;;;;1.52;0.40;;;9.60;71.70;;;;;;10200029;28;20105;-65
2021/03/11 23:26:49;;;;;;;1.48;0.20;;;9.50;70.70;;;;;;10201077;28;20051;-64
2021/03/11 23:31:40;;;;;;;0.85;0.80;;;9.50;71.20;;;;;;10199347;28;20444;-65
2021/03/11 23:36:31;;;;;;;3.75;1.63;;;9.50;71.70;;;;;;10201412;28;20143;-65
2021/03/11 23:41:22;;;;;;;1.88;0.43;;;9.50;71.50;;;;;;10206731;28;20106;-64
2021/03/11 23:46:13;;;;;;;1.42;0.80;;;9.50;71.20;;;;;;10185146;28;20027;-64
2021/03/11 23:51:05;;;;;;;2.45;0.65;;;9.50;71.40;;;;;;10200810;28;20031;-63
2021/03/11 23:55:56;;;;;;;1.90;0.60;;;9.50;71.50;;;;;;10207092;28;20096;-63
